Time;durP1;ratioP1;P1;durP2;ratioP2;P2;SDS_P1;SDS_P2;PMS_P1;PMS_P2;Temp;Humidity;BMP_temperature;BMP_pressure;BME280_temperature;BME280_humidity;BME280_pressure;Samples;Min_cycle;Max_cycle;Signal;HPM_P1;HPM_P2
2022/05/12 00:00:09;;;;;;;8.82;2.22;;;11.90;99.90;;;;;;5032943;28;20132;-76
2022/05/12 00:02:35;;;;;;;4.95;1.67;;;11.90;99.90;;;;;;5034113;28;20033;-76
2022/05/12 00:05:02;;;;;;;5.15;1.70;;;11.90;99.90;;;;;;5033649;28;20118;-76
2022/05/12 00:07:28;;;;;;;5.43;1.50;;;11.80;99.90;;;;;;5033375;28;20056;-75
2022/05/12 00:09:54;;;;;;;4.43;1.42;;;11.80;99.90;;;;;;5034036;28;20468;-75
2022/05/12 00:12:19;;;;;;;10.63;1.80;;;11.70;99.90;;;;;;5034060;28;20025;-77
2022/05/12 00:14:45;;;;;;;10.10;1.83;;;11.80;99.90;;;;;;5033175;28;20017;-76
2022/05/12 00:17:11;;;;;;;7.70;2.75;;;11.80;99.90;;;;;;5033499;28;20402;-76
2022/05/12 00:19:36;;;;;;;8.10;1.85;;;11.80;99.90;;;;;;5033568;28;20034;-76
2022/05/12 00:22:02;;;;;;;8.05;1.95;;;11.80;99.90;;;;;;5032735;28;20030;-78
2022/05/12 00:24:27;;;;;;;7.97;1.77;;;11.90;99.90;;;;;;5033515;28;20033;-76
2022/05/12 00:26:53;;;;;;;9.75;2.10;;;11.90;99.90;;;;;;5033353;28;20033;-76
2022/05/12 00:29:19;;;;;;;5.38;1.60;;;11.90;99.90;;;;;;5032840;28;20052;-77
2022/05/12 00:31:46;;;;;;;7.93;1.90;;;11.80;99.90;;;;;;5034011;28;20029;-76
2022/05/12 00:34:13;;;;;;;6.15;1.25;;;11.80;99.90;;;;;;5032487;28;20021;-76
2022/05/12 00:36:39;;;;;;;5.85;1.55;;;11.70;99.90;;;;;;5033703;28;20033;-77
2022/05/12 00:39:05;;;;;;;11.20;2.17;;;11.80;99.90;;;;;;5033129;28;20025;-77
2022/05/12 00:41:31;;;;;;;4.75;2.08;;;11.70;99.90;;;;;;5032891;28;20038;-76
2022/05/12 00:44:02;;;;;;;9.77;1.98;;;11.70;99.90;;;;;;5033132;28;20087;-77
2022/05/12 00:46:31;;;;;;;10.85;2.55;;;11.80;99.90;;;;;;5032128;28;20034;-76
2022/05/12 00:49:07;;;;;;;5.60;1.92;;;11.80;99.90;;;;;;5032189;28;20599;-77
2022/05/12 00:51:58;;;;;;;5.43;2.33;;;11.70;99.90;;;;;;5033474;28;20017;-77
2022/05/12 00:54:32;;;;;;;8.18;2.10;;;11.70;99.90;;;;;;5033265;28;20404;-75
2022/05/12 00:57:00;;;;;;;8.43;2.08;;;11.70;99.90;;;;;;5031776;28;20481;-77
2022/05/12 00:59:31;;;;;;;6.50;2.08;;;11.70;99.90;;;;;;5025840;28;20061;-76
2022/05/12 01:01:58;;;;;;;6.85;3.15;;;11.60;99.90;;;;;;5032856;28;20102;-76
2022/05/12 01:04:24;;;;;;;7.72;2.40;;;11.60;99.90;;;;;;5032498;28;20025;-76
2022/05/12 01:06:51;;;;;;;8.30;2.80;;;11.50;99.90;;;;;;5033129;28;20044;-76
2022/05/12 01:09:16;;;;;;;4.35;2.47;;;11.40;99.90;;;;;;5034764;28;20486;-76
2022/05/12 01:11:42;;;;;;;8.68;1.92;;;11.30;99.90;;;;;;5032127;28;20107;-76
2022/05/12 01:14:09;;;;;;;9.85;2.58;;;11.30;99.90;;;;;;5032395;28;20036;-77
2022/05/12 01:16:44;;;;;;;10.00;2.40;;;11.20;99.90;;;;;;5032153;28;20032;-76
2022/05/12 01:19:16;;;;;;;4.40;2.22;;;11.20;99.90;;;;;;5032562;28;20060;-77
2022/05/12 01:21:43;;;;;;;5.05;2.70;;;11.30;99.90;;;;;;5033338;28;20083;-77
2022/05/12 01:24:09;;;;;;;7.03;2.63;;;11.30;99.90;;;;;;5031559;28;20390;-77
2022/05/12 01:26:35;;;;;;;3.97;2.35;;;11.30;99.90;;;;;;5032519;28;20041;-77
2022/05/12 01:29:01;;;;;;;6.70;2.72;;;11.30;99.90;;;;;;5032492;28;20064;-76
2022/05/12 01:31:27;;;;;;;6.03;2.38;;;11.30;99.90;;;;;;5031899;28;20032;-76
2022/05/12 01:33:52;;;;;;;11.63;2.38;;;11.30;99.90;;;;;;5032209;28;20021;-76
2022/05/12 01:36:19;;;;;;;12.73;3.65;;;11.30;99.90;;;;;;5032371;28;20029;-76
2022/05/12 01:38:45;;;;;;;2.83;1.75;;;11.40;99.90;;;;;;5031776;28;20080;-75
2022/05/12 01:41:11;;;;;;;4.70;2.58;;;11.40;99.90;;;;;;5032029;28;20033;-76
2022/05/12 01:43:36;;;;;;;3.10;1.60;;;11.40;99.90;;;;;;5032476;28;20022;-76
2022/05/12 01:46:02;;;;;;;7.05;2.80;;;11.40;99.90;;;;;;5031394;28;20049;-76
2022/05/12 01:48:28;;;;;;;2.20;1.63;;;11.40;99.90;;;;;;5032128;28;20473;-75
2022/05/12 01:50:54;;;;;;;3.75;1.70;;;11.30;99.90;;;;;;5031922;28;20116;-76
2022/05/12 01:53:20;;;;;;;4.47;1.67;;;11.30;99.90;;;;;;5031450;28;20486;-76
2022/05/12 01:55:48;;;;;;;4.45;1.65;;;11.30;99.90;;;;;;5030893;28;20033;-75
2022/05/12 01:58:15;;;;;;;4.15;1.58;;;11.30;99.90;;;;;;5031924;28;20389;-76
2022/05/12 02:00:41;;;;;;;2.85;1.80;;;11.30;99.90;;;;;;5031623;28;20041;-75
2022/05/12 02:03:07;;;;;;;5.07;1.95;;;11.30;99.90;;;;;;5031806;28;20386;-77
2022/05/12 02:05:35;;;;;;;4.65;1.70;;;11.40;99.90;;;;;;5032057;28;20025;-76
2022/05/12 02:08:02;;;;;;;4.40;1.77;;;11.30;99.90;;;;;;5031176;28;20043;-77
2022/05/12 02:10:31;;;;;;;5.68;2.33;;;11.40;99.90;;;;;;5031723;28;20025;-76
2022/05/12 02:12:57;;;;;;;4.28;1.73;;;11.40;99.90;;;;;;5031238;28;20029;-76
2022/05/12 02:15:23;;;;;;;4.88;2.20;;;11.40;99.90;;;;;;5032099;28;20029;-76
2022/05/12 02:17:49;;;;;;;2.38;1.77;;;11.40;99.90;;;;;;5031977;28;20040;-76
2022/05/12 02:20:17;;;;;;;2.70;1.88;;;11.40;99.90;;;;;;5031660;28;20115;-76
2022/05/12 02:22:43;;;;;;;4.20;1.85;;;11.30;99.90;;;;;;5031707;28;20033;-76
2022/05/12 02:25:09;;;;;;;2.78;1.70;;;11.30;99.90;;;;;;5031903;28;20915;-74
2022/05/12 02:27:35;;;;;;;4.25;1.98;;;11.20;99.90;;;;;;5031222;28;20034;-75
2022/05/12 02:30:01;;;;;;;5.68;2.80;;;11.20;99.90;;;;;;5031782;28;20581;-75
2022/05/12 02:32:27;;;;;;;3.05;2.35;;;11.30;99.90;;;;;;5031762;28;20109;-76
2022/05/12 02:34:53;;;;;;;5.28;2.40;;;11.30;99.90;;;;;;5031585;28;20036;-75
2022/05/12 02:37:19;;;;;;;4.78;2.13;;;11.20;99.90;;;;;;5032106;28;20377;-76
2022/05/12 02:39:45;;;;;;;8.75;3.35;;;11.20;99.90;;;;;;5031943;28;20089;-78
2022/05/12 02:42:11;;;;;;;8.32;2.60;;;11.20;99.90;;;;;;5030951;28;20037;-76
2022/05/12 02:44:37;;;;;;;4.28;2.22;;;11.30;99.90;;;;;;5031810;28;20022;-76
2022/05/12 02:47:04;;;;;;;2.92;2.40;;;11.30;99.90;;;;;;5031370;28;20117;-76
2022/05/12 02:49:30;;;;;;;7.00;2.90;;;11.20;99.90;;;;;;5030989;28;20026;-77
2022/05/12 02:51:55;;;;;;;6.85;2.38;;;11.20;99.90;;;;;;5031442;28;20074;-75
2022/05/12 02:54:21;;;;;;;3.58;2.80;;;11.10;99.90;;;;;;5031856;28;20099;-76
2022/05/12 02:56:47;;;;;;;4.75;2.42;;;11.00;99.90;;;;;;5030814;28;20026;-76
2022/05/12 02:59:13;;;;;;;3.50;2.55;;;11.00;99.90;;;;;;5031543;28;20052;-75
2022/05/12 03:01:39;;;;;;;4.97;3.38;;;11.20;99.90;;;;;;5031449;28;20338;-75
2022/05/12 03:04:05;;;;;;;7.28;3.65;;;11.10;99.90;;;;;;5030528;28;20018;-76
2022/05/12 03:06:31;;;;;;;3.95;3.38;;;11.00;99.90;;;;;;5031381;28;20512;-75
2022/05/12 03:08:58;;;;;;;6.13;3.10;;;11.10;99.90;;;;;;5031597;28;20032;-76
2022/05/12 03:11:23;;;;;;;9.75;3.05;;;11.20;99.90;;;;;;5035201;28;20081;-74
2022/05/12 03:13:50;;;;;;;9.63;3.92;;;11.10;99.90;;;;;;5034765;28;20052;-76
2022/05/12 03:16:18;;;;;;;5.60;3.85;;;11.00;99.90;;;;;;5034259;28;20144;-76
2022/05/12 03:18:46;;;;;;;9.48;3.78;;;11.00;99.90;;;;;;5034554;28;20667;-76
2022/05/12 03:21:13;;;;;;;4.68;3.30;;;10.90;99.90;;;;;;5034516;28;20108;-77
2022/05/12 03:23:40;;;;;;;6.15;3.53;;;10.90;99.90;;;;;;5034015;28;20477;-76
2022/05/12 03:26:06;;;;;;;6.75;4.50;;;10.80;99.90;;;;;;5034401;28;20049;-76
2022/05/12 03:28:33;;;;;;;8.23;3.92;;;10.80;99.90;;;;;;5034670;28;20537;-77
2022/05/12 03:31:00;;;;;;;8.52;4.43;;;10.80;99.90;;;;;;5034339;28;20029;-77
2022/05/12 03:33:25;;;;;;;6.65;4.03;;;10.70;99.90;;;;;;5036020;28;20025;-75
2022/05/12 03:35:51;;;;;;;4.95;4.38;;;10.70;99.90;;;;;;5034409;28;20045;-74
2022/05/12 03:38:20;;;;;;;8.10;6.32;;;10.70;99.90;;;;;;5033880;28;20022;-75
2022/05/12 03:40:46;;;;;;;5.38;4.78;;;10.60;99.90;;;;;;5034574;28;20108;-76
2022/05/12 03:44:46;;;;;;;5.38;4.43;;;10.60;99.90;;;;;;5034686;28;20029;-75
2022/05/12 03:45:58;;;;;;;11.95;4.43;;;10.60;99.90;;;;;;5033554;28;20094;-74
2022/05/12 03:48:23;;;;;;;7.38;4.30;;;10.80;99.90;;;;;;5034392;28;20041;-75
2022/05/12 03:50:49;;;;;;;7.78;4.53;;;10.80;99.90;;;;;;5034194;28;20017;-75
2022/05/12 03:53:14;;;;;;;5.43;4.00;;;10.80;99.90;;;;;;5033347;28;20029;-75
2022/05/12 03:55:40;;;;;;;9.05;6.03;;;10.80;99.90;;;;;;5034029;28;20037;-76
2022/05/12 03:58:05;;;;;;;6.50;4.40;;;10.70;99.90;;;;;;5033806;28;20032;-74
2022/05/12 04:00:32;;;;;;;4.85;4.22;;;10.70;99.90;;;;;;5033152;28;20507;-76
2022/05/12 04:02:57;;;;;;;7.03;5.00;;;10.80;99.90;;;;;;5033714;28;20110;-76
2022/05/12 04:05:24;;;;;;;10.15;5.00;;;10.70;99.90;;;;;;5033465;28;20112;-75
2022/05/12 04:07:51;;;;;;;9.43;4.75;;;10.70;99.90;;;;;;5034135;28;20040;-76
2022/05/12 04:10:17;;;;;;;6.50;4.47;;;10.80;99.90;;;;;;5033902;28;20426;-74
2022/05/12 04:12:43;;;;;;;5.80;4.78;;;10.70;99.90;;;;;;5033221;28;20033;-76
2022/05/12 04:15:09;;;;;;;5.90;4.60;;;10.70;99.90;;;;;;5033507;28;20028;-76
2022/05/12 04:17:35;;;;;;;6.85;4.90;;;10.60;99.90;;;;;;5033826;28;20021;-75
2022/05/12 04:20:04;;;;;;;8.30;5.00;;;10.70;99.90;;;;;;5032633;28;20271;-76
2022/05/12 04:22:30;;;;;;;7.13;4.90;;;10.70;99.90;;;;;;5033871;28;20033;-75
2022/05/12 04:24:56;;;;;;;7.03;4.63;;;10.80;99.90;;;;;;5033210;28;20080;-75
2022/05/12 04:27:21;;;;;;;13.93;5.30;;;10.80;99.90;;;;;;5033029;28;20401;-75
2022/05/12 04:29:47;;;;;;;9.25;4.35;;;10.90;99.90;;;;;;5033669;28;20021;-75
2022/05/12 04:32:13;;;;;;;8.50;4.22;;;10.90;99.90;;;;;;5033954;28;20029;-75
2022/05/12 04:37:31;;;;;;;8.93;4.68;;;10.90;99.90;;;;;;5033388;28;20068;-75
2022/05/12 04:40:09;;;;;;;7.60;3.88;;;10.90;99.90;;;;;;5032963;28;20055;-75
2022/05/12 04:42:34;;;;;;;11.10;4.78;;;11.00;99.90;;;;;;5032322;28;20064;-76
2022/05/12 04:45:00;;;;;;;6.75;4.50;;;11.10;99.90;;;;;;5032978;28;20053;-75
2022/05/12 04:47:26;;;;;;;8.75;4.15;;;11.00;99.90;;;;;;5032079;28;20033;-75
2022/05/12 04:49:52;;;;;;;7.78;4.40;;;11.00;99.90;;;;;;5032867;28;20033;-76
2022/05/12 04:52:18;;;;;;;7.75;4.55;;;11.20;99.90;;;;;;5033074;28;20390;-75
2022/05/12 04:54:43;;;;;;;7.85;3.90;;;11.20;99.90;;;;;;5032188;28;20460;-74
2022/05/12 04:57:09;;;;;;;13.65;4.32;;;11.30;99.90;;;;;;5032661;28;20032;-74
2022/05/12 04:59:34;;;;;;;6.50;4.20;;;11.30;99.90;;;;;;5032882;28;20057;-74
2022/05/12 05:02:00;;;;;;;6.85;4.13;;;11.30;99.90;;;;;;5032005;28;20417;-76
2022/05/12 05:04:26;;;;;;;7.00;4.15;;;11.30;99.90;;;;;;5032863;28;20032;-75
2022/05/12 05:06:52;;;;;;;10.55;3.85;;;11.40;99.90;;;;;;5032366;28;20382;-75
2022/05/12 05:09:17;;;;;;;8.90;3.90;;;11.40;99.90;;;;;;5031951;28;20120;-76
2022/05/12 05:11:43;;;;;;;7.22;4.05;;;11.30;99.90;;;;;;5032600;28;20117;-74
2022/05/12 05:14:08;;;;;;;7.47;4.32;;;11.40;99.90;;;;;;5032525;28;20022;-74
2022/05/12 05:16:34;;;;;;;8.38;3.75;;;11.40;99.90;;;;;;5031628;28;20030;-76
2022/05/12 05:19:00;;;;;;;8.63;4.50;;;11.40;99.90;;;;;;5032281;28;20026;-76
2022/05/12 05:21:25;;;;;;;4.75;4.00;;;11.50;99.90;;;;;;5032458;28;20026;-75
2022/05/12 05:23:51;;;;;;;8.00;3.53;;;11.60;99.90;;;;;;5031309;28;20084;-75
2022/05/12 05:26:18;;;;;;;10.00;4.15;;;11.60;99.90;;;;;;5032442;28;20022;-75
2022/05/12 05:28:44;;;;;;;8.15;4.65;;;11.70;99.90;;;;;;5032848;28;20038;-75
2022/05/12 05:31:09;;;;;;;9.63;4.18;;;11.80;99.90;;;;;;5031055;28;20021;-75
2022/05/12 05:33:35;;;;;;;8.93;4.47;;;12.00;99.90;;;;;;5032189;28;20028;-76
2022/05/12 05:36:01;;;;;;;8.05;3.65;;;12.00;99.90;;;;;;5032143;28;20025;-75
2022/05/12 05:38:27;;;;;;;9.00;3.67;;;12.20;99.90;;;;;;5031591;28;20025;-75
2022/05/12 05:40:52;;;;;;;7.28;3.17;;;12.20;99.90;;;;;;5033149;28;20067;-76
2022/05/12 05:43:19;;;;;;;12.95;4.55;;;12.30;99.90;;;;;;5032393;28;20026;-75
2022/05/12 05:45:45;;;;;;;12.23;3.60;;;12.30;99.90;;;;;;5031491;28;20033;-75
2022/05/12 05:48:11;;;;;;;10.57;3.88;;;12.40;99.90;;;;;;5031593;28;20553;-75
2022/05/12 05:53:27;;;;;;;7.32;3.30;;;12.50;99.90;;;;;;5032502;28;20503;-80
2022/05/12 05:55:56;;;;;;;10.32;2.85;;;12.50;99.90;;;;;;5031969;28;20036;-75
2022/05/12 05:58:22;;;;;;;10.93;3.60;;;12.60;99.90;;;;;;5020734;28;20048;-75
2022/05/12 06:00:48;;;;;;;5.45;3.17;;;12.50;99.90;;;;;;5015407;28;20029;-75
2022/05/12 06:03:14;;;;;;;10.00;3.60;;;12.60;99.90;;;;;;5029444;28;20029;-75
2022/05/12 06:05:41;;;;;;;6.78;3.47;;;12.70;99.90;;;;;;5028768;28;20033;-76
2022/05/12 06:08:10;;;;;;;12.80;3.38;;;12.70;99.90;;;;;;5027666;28;20033;-76
2022/05/12 06:10:36;;;;;;;6.93;2.88;;;12.80;99.90;;;;;;5027198;28;20454;-76
2022/05/12 06:13:03;;;;;;;8.30;2.88;;;12.80;99.90;;;;;;5028393;28;20072;-76
2022/05/12 06:15:29;;;;;;;4.97;2.88;;;12.90;99.90;;;;;;5029292;28;20028;-76
2022/05/12 06:17:55;;;;;;;5.93;2.50;;;12.90;99.90;;;;;;5028956;28;20497;-76
2022/05/12 06:20:22;;;;;;;6.90;2.80;;;12.90;99.90;;;;;;5028964;28;20176;-76
2022/05/12 06:22:47;;;;;;;5.25;2.95;;;13.00;99.90;;;;;;5027029;28;20216;-76
2022/05/12 06:25:15;;;;;;;5.30;2.90;;;13.00;99.90;;;;;;5030634;28;20111;-76
2022/05/12 06:27:41;;;;;;;10.65;3.85;;;13.00;99.90;;;;;;5027242;28;20133;-76
2022/05/12 06:30:11;;;;;;;3.95;2.50;;;13.10;99.90;;;;;;5029994;28;20148;-74
2022/05/12 06:32:38;;;;;;;6.63;2.80;;;13.10;99.90;;;;;;5030411;28;20033;-75
2022/05/12 06:35:04;;;;;;;7.22;2.72;;;13.10;99.90;;;;;;5031196;28;20076;-75
2022/05/12 06:37:29;;;;;;;4.28;2.47;;;13.20;99.90;;;;;;5035567;28;20109;-76
2022/05/12 06:39:55;;;;;;;7.22;2.75;;;13.30;99.90;;;;;;5028466;28;20436;-75
2022/05/12 06:42:20;;;;;;;5.93;2.60;;;13.30;99.90;;;;;;5028247;28;20009;-76
2022/05/12 06:44:46;;;;;;;4.03;2.45;;;13.30;99.90;;;;;;5029538;28;20080;-77
2022/05/12 06:47:14;;;;;;;9.88;2.60;;;13.40;99.90;;;;;;5027520;28;20087;-77
2022/05/12 06:49:40;;;;;;;5.30;2.20;;;13.40;99.90;;;;;;5034079;28;20060;-77
2022/05/12 06:52:07;;;;;;;4.78;2.25;;;13.50;99.90;;;;;;5033852;28;20033;-77
2022/05/12 06:54:37;;;;;;;6.28;2.03;;;13.50;99.90;;;;;;5033185;28;20021;-77
2022/05/12 06:57:04;;;;;;;6.95;2.42;;;13.50;99.90;;;;;;5033511;28;20390;-77
2022/05/12 06:59:30;;;;;;;7.45;2.13;;;13.60;99.90;;;;;;5033721;28;20042;-76
2022/05/12 07:01:55;;;;;;;6.90;2.25;;;13.90;99.90;;;;;;5027535;28;20504;-77
2022/05/12 07:04:24;;;;;;;7.15;2.35;;;13.70;99.90;;;;;;5028758;28;20156;-77
2022/05/12 07:06:49;;;;;;;3.75;1.92;;;13.70;99.90;;;;;;5033722;28;20067;-76
2022/05/12 07:09:18;;;;;;;5.47;2.58;;;13.80;99.90;;;;;;5033780;28;20108;-77
2022/05/12 07:11:44;;;;;;;9.02;2.30;;;13.90;99.90;;;;;;5035130;28;20029;-78
2022/05/12 07:14:10;;;;;;;5.93;2.33;;;14.00;99.90;;;;;;5033195;28;20018;-75
2022/05/12 07:16:36;;;;;;;6.03;2.00;;;14.10;99.90;;;;;;5031261;28;20034;-76
2022/05/12 07:19:02;;;;;;;4.18;2.25;;;14.10;99.90;;;;;;5032873;28;20029;-77
2022/05/12 07:26:56;;;;;;;5.50;3.17;;;14.10;99.90;;;;;;5034099;28;20090;-77
2022/05/12 07:29:24;;;;;;;8.65;3.15;;;14.30;99.90;;;;;;5033665;28;20025;-78
2022/05/12 07:31:51;;;;;;;7.10;3.65;;;14.30;99.90;;;;;;5034197;28;20037;-78
2022/05/12 07:34:17;;;;;;;10.15;4.50;;;14.40;99.90;;;;;;5034229;28;20477;-77
2022/05/12 07:36:46;;;;;;;6.72;3.85;;;14.40;99.90;;;;;;5033550;28;20373;-77
2022/05/12 07:39:12;;;;;;;6.03;4.20;;;14.40;99.90;;;;;;5033787;28;20148;-77
2022/05/12 07:41:42;;;;;;;7.63;4.38;;;14.40;99.90;;;;;;5034167;28;20115;-76
2022/05/12 07:44:17;;;;;;;5.22;4.35;;;14.40;99.90;;;;;;5033462;28;20033;-76
2022/05/12 07:46:43;;;;;;;6.38;3.97;;;14.50;99.90;;;;;;5034096;28;20025;-77
2022/05/12 07:49:09;;;;;;;6.10;3.50;;;14.50;99.90;;;;;;5033956;28;20175;-75
2022/05/12 07:51:35;;;;;;;8.07;4.03;;;14.50;99.90;;;;;;5033344;28;20029;-77
2022/05/12 07:54:01;;;;;;;9.13;3.58;;;14.60;99.90;;;;;;5033688;28;20044;-76
2022/05/12 07:56:28;;;;;;;7.82;3.50;;;14.70;99.90;;;;;;5033615;28;20034;-78
2022/05/12 07:58:55;;;;;;;9.68;3.22;;;14.80;99.90;;;;;;5032933;28;20499;-78
2022/05/12 08:01:21;;;;;;;7.75;3.25;;;14.90;99.90;;;;;;5025671;28;20528;-78
2022/05/12 08:03:47;;;;;;;7.25;3.25;;;15.00;99.90;;;;;;5002240;28;20092;-81
2022/05/12 08:06:15;;;;;;;4.32;2.88;;;15.00;99.90;;;;;;4995779;28;20030;-79
2022/05/12 08:08:42;;;;;;;3.97;3.10;;;15.10;99.90;;;;;;4995696;28;20049;-82
2022/05/12 08:11:08;;;;;;;6.38;3.35;;;15.20;99.90;;;;;;5007520;28;21103;-76
2022/05/12 08:13:34;;;;;;;8.07;3.67;;;15.20;99.90;;;;;;5005705;28;20061;-76
2022/05/12 08:16:00;;;;;;;10.43;3.50;;;15.20;99.90;;;;;;5003297;28;20065;-78
2022/05/12 08:18:26;;;;;;;3.50;2.53;;;15.30;99.90;;;;;;4999872;28;20026;-77
2022/05/12 08:20:53;;;;;;;10.50;3.00;;;15.30;99.90;;;;;;4997182;28;20041;-77
2022/05/12 08:23:19;;;;;;;5.82;2.80;;;15.40;99.90;;;;;;4997813;28;20418;-77
2022/05/12 08:25:46;;;;;;;4.55;2.45;;;15.40;99.90;;;;;;4992610;28;20041;-77
2022/05/12 08:28:18;;;;;;;3.90;2.22;;;15.40;99.90;;;;;;4998244;28;20490;-77
2022/05/12 08:30:44;;;;;;;6.80;2.85;;;15.50;99.90;;;;;;5002522;28;20064;-76
2022/05/12 08:33:10;;;;;;;7.40;2.72;;;15.60;99.90;;;;;;5004215;28;20034;-75
2022/05/12 08:35:37;;;;;;;7.32;2.38;;;15.60;99.90;;;;;;5000415;28;20548;-76
2022/05/12 08:38:03;;;;;;;3.97;2.50;;;15.70;99.90;;;;;;5004987;28;20034;-75
2022/05/12 08:41:02;;;;;;;4.97;2.22;;;15.80;99.90;;;;;;5003954;28;20091;-74
2022/05/12 08:43:56;;;;;;;6.13;1.85;;;15.90;99.90;;;;;;5000136;28;20030;-74
2022/05/12 08:46:38;;;;;;;8.65;3.20;;;16.00;99.90;;;;;;5006639;28;20062;-75
2022/05/12 08:49:19;;;;;;;4.95;2.40;;;16.10;99.90;;;;;;4996482;28;20022;-76
2022/05/12 08:51:48;;;;;;;7.93;2.20;;;16.20;99.90;;;;;;5010988;28;20038;-76
2022/05/12 08:54:18;;;;;;;8.33;2.13;;;16.40;99.90;;;;;;5004832;28;21282;-77
2022/05/12 08:56:44;;;;;;;3.47;1.58;;;16.50;99.90;;;;;;5007785;28;20018;-75
2022/05/12 08:59:10;;;;;;;5.72;2.00;;;16.70;99.90;;;;;;5008382;28;20073;-76
2022/05/12 09:01:38;;;;;;;3.85;1.88;;;16.90;99.90;;;;;;5003344;28;20069;-76
2022/05/12 09:04:19;;;;;;;3.90;1.75;;;17.10;99.90;;;;;;5005954;28;20033;-76
2022/05/12 09:07:10;;;;;;;3.92;2.00;;;17.20;99.90;;;;;;5007453;28;20041;-74
2022/05/12 09:09:48;;;;;;;3.90;1.90;;;17.30;99.90;;;;;;5001891;28;20030;-75
2022/05/12 09:12:46;;;;;;;3.47;2.17;;;17.30;99.90;;;;;;5002319;28;20026;-75
2022/05/12 09:15:23;;;;;;;3.60;2.15;;;17.30;99.90;;;;;;5011409;28;20046;-76
2022/05/12 09:17:56;;;;;;;5.05;1.77;;;17.40;99.90;;;;;;5002315;28;20113;-75
2022/05/12 09:20:23;;;;;;;2.55;1.35;;;17.50;99.90;;;;;;5000754;28;20054;-78
2022/05/12 09:22:48;;;;;;;5.63;1.30;;;17.50;99.90;;;;;;4997694;28;20516;-76
2022/05/12 09:25:38;;;;;;;3.35;2.10;;;17.60;99.90;;;;;;4998861;28;20042;-76
2022/05/12 09:28:27;;;;;;;5.38;1.80;;;17.60;99.90;;;;;;4992238;28;20034;-77
2022/05/12 09:30:55;;;;;;;3.30;2.00;;;17.80;99.90;;;;;;4996118;28;20089;-75
2022/05/12 09:33:39;;;;;;;2.05;1.30;;;17.90;99.90;;;;;;5008617;28;20034;-76
2022/05/12 09:36:28;;;;;;;3.58;1.50;;;18.00;99.20;;;;;;5006481;28;20029;-76
2022/05/12 09:38:55;;;;;;;9.32;1.73;;;18.10;99.60;;;;;;5000652;28;20096;-76
2022/05/12 09:41:22;;;;;;;5.90;2.13;;;18.00;98.90;;;;;;5007861;28;20125;-75
2022/05/12 09:43:52;;;;;;;2.60;1.48;;;18.00;98.70;;;;;;5011371;28;20025;-77
2022/05/12 09:46:17;;;;;;;4.53;1.45;;;18.00;98.90;;;;;;5006009;28;20014;-75
2022/05/12 09:48:47;;;;;;;3.40;1.65;;;18.00;98.20;;;;;;5009261;28;20121;-75
2022/05/12 09:51:21;;;;;;;6.93;1.50;;;18.00;98.50;;;;;;5009147;28;20025;-74
2022/05/12 09:53:49;;;;;;;6.00;1.70;;;18.20;97.80;;;;;;5010499;28;20030;-76
2022/05/12 09:56:27;;;;;;;4.25;1.85;;;18.30;97.70;;;;;;5010920;28;20037;-76
2022/05/12 09:59:24;;;;;;;4.07;1.27;;;18.40;98.20;;;;;;5012276;28;20112;-75
2022/05/12 10:01:58;;;;;;;3.58;1.50;;;18.50;97.10;;;;;;5009961;28;20029;-76
2022/05/12 10:10:23;;;;;;;5.88;1.67;;;18.40;95.70;;;;;;5007402;28;20390;-77
2022/05/12 10:13:05;;;;;;;2.15;1.05;;;18.40;96.30;;;;;;5008693;28;20494;-75
2022/05/12 10:15:39;;;;;;;3.47;1.33;;;18.40;94.10;;;;;;5012885;28;20042;-75
2022/05/12 10:18:27;;;;;;;1.80;1.00;;;18.30;95.00;;;;;;4993446;28;20026;-75
2022/05/12 10:20:57;;;;;;;2.95;1.20;;;18.30;94.20;;;;;;4998294;28;20026;-76
2022/05/12 10:23:40;;;;;;;4.25;1.50;;;18.40;93.30;;;;;;4998797;28;20042;-75
2022/05/12 10:26:16;;;;;;;3.97;1.25;;;18.50;94.40;;;;;;5005160;28;20057;-74
2022/05/12 10:29:05;;;;;;;2.10;1.13;;;18.50;93.50;;;;;;5004816;28;20088;-75
2022/05/12 10:31:56;;;;;;;2.03;1.10;;;18.50;92.60;;;;;;5009436;28;20021;-75
2022/05/12 10:34:46;;;;;;;2.60;1.10;;;18.50;93.70;;;;;;5007055;28;20038;-78
2022/05/12 10:37:33;;;;;;;3.08;1.08;;;18.60;93.90;;;;;;5006774;28;20023;-77
2022/05/12 10:40:17;;;;;;;2.50;1.23;;;18.70;93.90;;;;;;5006294;28;20029;-74
2022/05/12 10:42:57;;;;;;;5.63;1.55;;;18.70;93.60;;;;;;5000443;28;20109;-76
2022/05/12 10:45:42;;;;;;;;;;;18.70;92.70;;;;;;5013080;28;20033;-75
2022/05/12 10:48:28;;;;;;;4.45;1.80;;;18.60;92.00;;;;;;5022416;28;20082;-77
2022/05/12 10:51:01;;;;;;;5.15;1.20;;;18.60;92.30;;;;;;5019222;28;20087;-77
2022/05/12 10:53:32;;;;;;;3.33;1.40;;;18.60;92.90;;;;;;5019480;28;20525;-75
2022/05/12 10:55:58;;;;;;;4.45;1.30;;;18.70;92.30;;;;;;5009307;28;20478;-76
2022/05/12 10:58:35;;;;;;;1.90;1.05;;;18.70;91.50;;;;;;5008100;28;20107;-74
2022/05/12 11:01:23;;;;;;;3.30;1.08;;;18.70;91.20;;;;;;5001720;28;20030;-76
2022/05/12 11:04:05;;;;;;;3.30;1.15;;;18.80;91.30;;;;;;5001082;28;20056;-76
2022/05/12 11:06:49;;;;;;;3.08;1.42;;;18.80;90.10;;;;;;5005929;28;20096;-75
2022/05/12 11:09:24;;;;;;;3.75;1.00;;;19.00;91.80;;;;;;5004466;28;20504;-77
2022/05/12 11:11:53;;;;;;;3.20;1.25;;;19.10;91.70;;;;;;5000921;28;20030;-76
2022/05/12 11:14:31;;;;;;;2.13;0.98;;;19.10;91.20;;;;;;5009044;28;20050;-77
2022/05/12 11:17:12;;;;;;;1.25;1.00;;;19.30;91.10;;;;;;5003509;28;20026;-76
2022/05/12 11:19:45;;;;;;;4.95;1.40;;;19.30;90.80;;;;;;5009052;28;20030;-76
2022/05/12 11:22:40;;;;;;;3.63;1.50;;;19.20;90.50;;;;;;4999915;28;20029;-76
2022/05/12 11:25:29;;;;;;;2.72;1.27;;;19.20;89.80;;;;;;5004836;28;20026;-76
2022/05/12 11:31:08;;;;;;;1.50;1.05;;;19.40;90.90;;;;;;5005894;28;20033;-76
2022/05/12 11:33:38;;;;;;;1.02;0.90;;;19.50;90.70;;;;;;5017023;28;20381;-76
2022/05/12 11:36:04;;;;;;;4.00;1.10;;;19.80;89.90;;;;;;5021848;28;20082;-75
2022/05/12 11:38:36;;;;;;;1.20;1.02;;;20.00;88.70;;;;;;5018543;28;20501;-77
2022/05/12 11:41:02;;;;;;;3.58;1.30;;;20.10;88.80;;;;;;5019436;28;20038;-77
2022/05/12 11:46:45;;;;;;;2.65;1.10;;;20.40;86.30;;;;;;5018861;28;20036;-76
2022/05/12 11:49:11;;;;;;;4.25;1.40;;;20.30;86.40;;;;;;5015932;28;20454;-78
2022/05/12 11:51:52;;;;;;;3.42;1.00;;;20.30;86.00;;;;;;5018759;28;20037;-75
2022/05/12 11:54:22;;;;;;;1.98;1.30;;;20.40;87.30;;;;;;5014030;28;20030;-75
2022/05/12 11:56:55;;;;;;;;;;;20.70;87.70;;;;;;5004354;28;20500;-75
2022/05/12 11:59:31;;;;;;;3.35;1.50;;;20.80;87.50;;;;;;5004803;28;19924;-75
2022/05/12 12:02:04;;;;;;;3.88;1.27;;;20.80;86.80;;;;;;5007138;28;20058;-75
2022/05/12 12:04:43;;;;;;;2.45;1.35;;;20.70;85.30;;;;;;4997681;28;20022;-75
2022/05/12 12:07:21;;;;;;;3.15;1.48;;;20.70;86.20;;;;;;5003041;28;20117;-75
2022/05/12 12:09:46;;;;;;;3.92;1.58;;;20.60;85.50;;;;;;5003772;28;20026;-75
2022/05/12 12:12:41;;;;;;;1.90;1.13;;;20.60;85.40;;;;;;5004613;28;20533;-75
2022/05/12 12:15:33;;;;;;;3.70;1.60;;;20.70;85.60;;;;;;4996670;28;20033;-75
2022/05/12 12:18:25;;;;;;;1.83;1.00;;;20.60;86.10;;;;;;5000109;28;20423;-75
2022/05/12 12:20:54;;;;;;;3.33;1.52;;;20.70;84.40;;;;;;5004269;28;20061;-75
2022/05/12 12:23:30;;;;;;;4.45;1.27;;;20.70;86.90;;;;;;4999277;28;20076;-76
2022/05/12 12:26:01;;;;;;;2.80;1.70;;;20.80;85.10;;;;;;4996926;28;20128;-75
2022/05/12 12:29:08;;;;;;;7.25;2.10;;;21.00;85.20;;;;;;5004827;28;20502;-74
2022/05/12 12:31:40;;;;;;;2.20;2.00;;;20.90;83.30;;;;;;4995971;28;20026;-75
2022/05/12 12:34:27;;;;;;;2.88;1.30;;;21.00;84.70;;;;;;5010081;28;20064;-75
2022/05/12 12:37:08;;;;;;;2.05;1.40;;;21.20;80.90;;;;;;5013304;28;20105;-75
2022/05/12 12:39:40;;;;;;;3.45;1.38;;;21.20;79.60;;;;;;5012741;28;20490;-75
2022/05/12 12:42:19;;;;;;;2.78;1.38;;;21.10;80.70;;;;;;5013522;28;20034;-75
2022/05/12 12:44:53;;;;;;;5.57;1.38;;;21.10;81.60;;;;;;5013488;28;20057;-75
2022/05/12 12:47:43;;;;;;;3.00;1.83;;;21.30;80.90;;;;;;5012723;28;20421;-75
2022/05/12 12:50:24;;;;;;;4.00;1.75;;;21.40;77.90;;;;;;5013503;28;20030;-75
2022/05/12 12:52:50;;;;;;;3.60;1.10;;;21.20;77.30;;;;;;5012030;28;20528;-77
2022/05/12 12:58:31;;;;;;;7.03;2.17;;;21.30;80.30;;;;;;4993479;28;20061;-76
2022/05/12 13:01:03;;;;;;;7.13;1.77;;;21.30;79.60;;;;;;4992755;28;20521;-75
2022/05/12 13:03:31;;;;;;;2.30;1.60;;;21.20;78.10;;;;;;5003175;28;20037;-75
2022/05/12 13:06:12;;;;;;;3.60;1.73;;;21.10;79.90;;;;;;5013632;28;20026;-77
2022/05/12 13:08:38;;;;;;;3.70;1.38;;;20.90;79.90;;;;;;5009957;28;20034;-77
2022/05/12 13:11:05;;;;;;;5.20;1.65;;;21.00;81.80;;;;;;4998676;28;20026;-78
2022/05/12 13:13:31;;;;;;;3.65;2.10;;;21.10;79.80;;;;;;4993912;28;20034;-77
2022/05/12 13:16:03;;;;;;;3.90;2.00;;;21.20;79.60;;;;;;4992475;28;20489;-76
2022/05/12 13:18:34;;;;;;;2.42;1.48;;;21.20;79.30;;;;;;4993314;28;20105;-76
2022/05/12 13:21:02;;;;;;;4.07;1.67;;;21.30;78.70;;;;;;5008713;28;20057;-77
2022/05/12 13:23:32;;;;;;;2.33;1.38;;;21.10;78.70;;;;;;5012948;28;20030;-75
2022/05/12 13:26:02;;;;;;;2.63;1.58;;;21.30;79.80;;;;;;5013003;28;20172;-77